Wood Dale, Illinois
Current Conditions -  °F | °C
As of 1:51 PM on Wednesday 17 Dec 2014 (Local Time) from KORD Reporting Station
Overcast Overcast  
Wind Chill: 15°   Ceiling: 2200
Heat Index: 26°   Visibility: 10mi
Dew Point: 17°   Wind: 13mph
Humidity: 69%   Direction: 300°WNW
Pressure: 30.2"   Gusts: NA
Location:  41.97°N, 87.98°W
Report Text: KORD 171951Z 30011KT 10SM OVC022 M03/M08 A3020 RMK AO2 SLP237 T10331083
Loading
Personal Weather Stations






























Interactive Weather Map New forecast layout! Learn more

10-Day Weather Forecast

Advertisements
Track Severe Weather on mobile